createdAt,value
2018-04-13T00:02:02.348Z,0.00
2018-04-13T00:03:23.556Z,0.00
2018-04-13T00:05:01.574Z,0.00
2018-04-13T00:06:44.056Z,0.00
2018-04-13T00:07:41.414Z,0.00
2018-04-13T00:09:21.561Z,0.00
2018-04-13T00:11:21.093Z,0.00
2018-04-13T00:12:37.270Z,0.00
2018-04-13T00:14:39.003Z,0.00
2018-04-13T00:15:57.525Z,0.00
2018-04-13T00:17:40.380Z,0.00
2018-04-13T00:18:59.225Z,0.00
2018-04-13T00:19:59.345Z,0.00
2018-04-13T00:22:03.597Z,0.00
2018-04-13T00:22:42.634Z,0.00
2018-04-13T00:24:22.593Z,0.00
2018-04-13T00:26:00.171Z,0.00
2018-04-13T00:27:21.399Z,0.00
2018-04-13T00:28:59.188Z,0.00
2018-04-13T00:30:45.445Z,0.00
2018-04-13T00:32:04.008Z,0.00
2018-04-13T00:33:49.699Z,0.00
2018-04-13T00:36:15.507Z,0.00
2018-04-13T00:37:29.233Z,0.00
2018-04-13T00:41:19.940Z,0.00
2018-04-13T00:42:57.633Z,0.00
2018-04-13T00:44:40.139Z,0.00
2018-04-13T00:45:58.693Z,0.00
2018-04-13T00:47:42.626Z,0.00
2018-04-13T00:49:02.564Z,0.00
2018-04-13T00:50:45.130Z,0.00
2018-04-13T00:52:25.621Z,0.00
2018-04-13T00:53:41.950Z,0.00
2018-04-13T00:55:22.861Z,0.00
2018-04-13T00:57:00.610Z,0.00
2018-04-13T00:58:43.105Z,0.00
2018-04-13T00:59:40.582Z,0.00
2018-04-13T01:02:25.423Z,0.00
2018-04-13T01:03:41.929Z,0.00
2018-04-13T01:05:22.067Z,0.00
2018-04-13T01:07:24.345Z,0.00
2018-04-13T01:10:05.718Z,0.00
2018-04-13T01:11:48.441Z,0.00
2018-04-13T01:15:19.981Z,0.00
2018-04-13T01:16:58.389Z,0.00
2018-04-13T01:18:41.022Z,0.00
2018-04-13T01:19:59.574Z,0.00
2018-04-13T01:21:20.740Z,0.00
2018-04-13T01:23:01.501Z,0.00
2018-04-13T01:24:44.122Z,0.00
2018-04-13T01:25:41.374Z,0.00
2018-04-13T01:27:22.290Z,0.00
2018-04-13T01:28:38.612Z,0.00
2018-04-13T01:31:16.821Z,0.00
2018-04-13T01:34:21.165Z,0.00
2018-04-13T01:35:58.432Z,0.00
2018-04-13T01:36:58.387Z,0.00
2018-04-13T01:38:44.317Z,0.28
2018-04-13T01:40:02.770Z,0.28
2018-04-13T01:41:45.276Z,0.28
2018-04-13T01:43:03.912Z,0.28
2018-04-13T01:44:03.927Z,0.28
2018-04-13T01:45:46.309Z,0.28
2018-04-13T01:47:05.318Z,0.56
2018-04-13T01:48:49.004Z,0.56
2018-04-13T01:51:36.428Z,0.56
2018-04-13T01:55:44.342Z,0.56
2018-04-13T01:56:41.687Z,0.56
2018-04-13T01:58:00.433Z,0.56
2018-04-13T01:59:21.742Z,0.56
2018-04-13T02:02:25.770Z,0.84
2018-04-13T02:04:24.745Z,1.12
2018-04-13T02:06:23.830Z,1.12
2018-04-13T02:08:22.855Z,1.12
2018-04-13T02:10:00.316Z,1.12
2018-04-13T02:11:42.826Z,1.12
2018-04-13T02:12:40.166Z,1.40
2018-04-13T02:14:19.496Z,1.68
2018-04-13T02:15:57.070Z,1.68
2018-04-13T02:17:40.113Z,1.96
2018-04-13T02:18:58.846Z,2.24
2018-04-13T02:19:58.793Z,2.24
2018-04-13T02:21:41.462Z,2.24
2018-04-13T02:23:00.006Z,2.24
2018-04-13T02:24:44.141Z,2.24
2018-04-13T02:26:02.686Z,2.51
2018-04-13T02:26:41.538Z,2.51
2018-04-13T02:27:59.910Z,2.51
2018-04-13T02:29:22.825Z,2.51
2018-04-13T02:31:21.766Z,2.51
2018-04-13T02:33:20.862Z,2.51
2018-04-13T02:34:58.560Z,2.51
2018-04-13T02:36:01.839Z,2.51
2018-04-13T02:36:18.694Z,2.51
2018-04-13T02:38:39.226Z,2.51
2018-04-13T02:40:19.074Z,2.51
2018-04-13T02:41:56.974Z,2.51
2018-04-13T02:44:01.174Z,2.51
2018-04-13T02:45:22.289Z,2.24
2018-04-13T02:46:40.008Z,2.24
2018-04-13T02:47:58.549Z,2.24
2018-04-13T02:49:41.058Z,2.24
2018-04-13T02:51:20.998Z,2.24
2018-04-13T02:53:20.080Z,2.24
2018-04-13T02:54:36.730Z,2.24
2018-04-13T02:57:00.147Z,2.24
2018-04-13T02:58:42.750Z,2.24
2018-04-13T03:00:01.389Z,2.24
2018-04-13T03:00:19.393Z,2.24
2018-04-13T03:02:21.578Z,1.96
2018-04-13T03:03:59.274Z,1.68
2018-04-13T03:05:20.923Z,1.68
2018-04-13T03:07:19.774Z,1.68
2018-04-13T03:08:36.380Z,1.68
2018-04-13T03:11:21.541Z,1.40
2018-04-13T03:12:38.145Z,1.40
2018-04-13T03:13:35.614Z,1.12
2018-04-13T03:16:00.619Z,1.12
2018-04-13T03:18:04.403Z,0.56
2018-04-13T03:19:26.015Z,0.56
2018-04-13T03:21:25.006Z,0.56
2018-04-13T03:23:02.695Z,0.56
2018-04-13T03:24:45.190Z,0.56
2018-04-13T03:26:03.834Z,0.28
2018-04-13T03:28:07.944Z,0.28
2018-04-13T03:29:29.349Z,0.28
2018-04-13T03:32:57.840Z,0.28
2018-04-13T03:34:19.256Z,0.28
2018-04-13T03:36:18.241Z,0.00
2018-04-13T03:38:40.174Z,0.00
2018-04-13T03:39:58.733Z,0.00
2018-04-13T03:41:19.868Z,0.00
2018-04-13T03:42:57.513Z,0.00
2018-04-13T03:44:40.120Z,0.00
2018-04-13T03:45:59.776Z,0.00
2018-04-13T03:47:20.997Z,0.00
2018-04-13T03:48:37.638Z,0.00
2018-04-13T03:51:00.441Z,0.00
2018-04-13T03:52:42.832Z,0.00
2018-04-13T03:54:01.378Z,0.00
2018-04-13T03:55:22.690Z,0.00
2018-04-13T03:57:00.377Z,0.00
2018-04-13T03:58:42.988Z,0.00
2018-04-13T04:00:01.535Z,0.00
2018-04-13T07:23:30.827Z,0.00
2018-04-13T07:24:49.485Z,0.00
2018-04-13T07:25:49.593Z,0.00
2018-04-13T07:27:11.100Z,0.00
2018-04-13T07:28:48.686Z,0.00
2018-04-13T07:29:48.710Z,0.00
2018-04-13T07:31:31.301Z,0.00
2018-04-13T07:32:07.749Z,0.00
2018-04-13T07:35:55.200Z,0.00
2018-04-13T07:37:16.706Z,0.00
2018-04-13T07:39:25.238Z,0.00
2018-04-13T07:40:19.771Z,0.00
2018-04-13T07:41:36.186Z,0.00
2018-04-13T07:43:16.126Z,0.00
2018-04-13T07:45:15.322Z,0.00
2018-04-13T07:46:52.914Z,0.00
2018-04-13T07:48:14.322Z,0.00
2018-04-13T07:49:52.001Z,0.00
2018-04-13T07:51:34.519Z,0.00
2018-04-13T07:52:53.053Z,0.00
2018-04-13T07:53:53.061Z,0.00
2018-04-13T07:55:35.561Z,0.00
2018-04-13T07:57:15.509Z,0.00
2018-04-13T07:58:53.300Z,0.00
2018-04-13T08:00:35.808Z,0.00
2018-04-13T08:01:54.450Z,0.00
2018-04-13T08:03:37.055Z,0.00
2018-04-13T08:04:34.306Z,0.00
2018-04-13T08:05:52.749Z,0.00
2018-04-13T08:07:14.194Z,0.00
2018-04-13T08:08:51.855Z,0.00
2018-04-13T08:10:34.446Z,0.00
2018-04-13T08:11:52.991Z,0.00
2018-04-13T08:13:14.095Z,0.00
2018-04-13T08:15:12.983Z,0.00
2018-04-13T08:16:50.667Z,0.00
2018-04-13T08:18:33.314Z,0.00
2018-04-13T08:19:51.821Z,0.00
2018-04-13T08:21:13.031Z,0.00
2018-04-13T15:22:19.814Z,0.00
2018-04-13T15:24:18.865Z,0.00
2018-04-13T15:26:17.874Z,0.00
2018-04-13T15:27:55.262Z,0.00
2018-04-13T15:29:19.393Z,0.00
2018-04-13T15:30:57.014Z,0.00
2018-04-13T15:32:39.819Z,0.00
2018-04-13T15:35:05.349Z,0.00
2018-04-13T15:36:20.147Z,0.00
2018-04-13T15:37:57.983Z,0.00
2018-04-13T15:39:40.494Z,0.00
2018-04-13T15:41:23.826Z,0.00
2018-04-13T15:42:20.438Z,0.00
2018-04-13T15:45:48.821Z,0.00
2018-04-13T15:47:10.140Z,0.00
2018-04-13T15:49:09.228Z,0.00
2018-04-13T15:51:51.534Z,0.00
2018-04-13T15:53:34.051Z,0.00
2018-04-13T15:55:13.886Z,0.00
2018-04-13T15:56:51.883Z,0.00
2018-04-13T15:58:34.481Z,0.00
2018-04-13T16:00:14.322Z,0.00
2018-04-13T16:01:52.114Z,0.00
2018-04-13T16:03:14.342Z,0.00
2018-04-13T16:04:52.042Z,0.00
2018-04-13T16:06:34.654Z,0.00
2018-04-13T16:07:53.390Z,0.00
2018-04-13T16:09:35.897Z,0.00
2018-04-13T16:10:54.445Z,0.00
2018-04-13T16:12:36.833Z,0.00
2018-04-13T16:14:16.683Z,0.00
2018-04-13T16:15:54.569Z,0.00
2018-04-13T16:17:15.891Z,0.00
2018-04-13T16:20:33.284Z,0.00
2018-04-13T16:21:52.053Z,0.00
